createdAt,value
2022-12-13T00:01:27.353Z,-11.30
2022-12-13T00:03:55.955Z,-11.30
2022-12-13T00:06:23.020Z,-11.40
2022-12-13T00:08:49.773Z,-11.40
2022-12-13T00:11:17.038Z,-11.40
2022-12-13T00:13:44.299Z,-11.40
2022-12-13T00:16:14.595Z,-11.40
2022-12-13T00:18:41.338Z,-11.40
2022-12-13T00:21:11.443Z,-11.30
2022-12-13T00:23:38.111Z,-11.20
2022-12-13T00:26:06.237Z,-11.30
2022-12-13T00:28:33.011Z,-11.30
2022-12-13T00:31:19.615Z,-11.30
2022-12-13T00:33:48.428Z,-11.30
2022-12-13T00:36:15.773Z,-11.40
2022-12-13T00:38:42.578Z,-11.40
2022-12-13T00:41:20.247Z,-11.30
2022-12-13T00:43:48.116Z,-11.20
2022-12-13T00:46:17.860Z,-11.20
2022-12-13T00:48:48.615Z,-11.10
2022-12-13T00:51:15.628Z,-11.20
2022-12-13T00:53:42.298Z,-11.20
2022-12-13T00:56:14.790Z,-11.30
2022-12-13T00:58:45.008Z,-11.20
2022-12-13T01:01:15.812Z,-11.20
2022-12-13T01:03:42.845Z,-11.30
2022-12-13T01:06:21.316Z,-11.40
2022-12-13T01:08:48.834Z,-11.40
2022-12-13T01:11:16.121Z,-11.50
2022-12-13T01:13:42.813Z,-11.50
2022-12-13T01:16:11.089Z,-11.50
2022-12-13T01:18:38.816Z,-11.50
2022-12-13T01:21:17.373Z,-11.50
2022-12-13T01:23:44.822Z,-11.50
2022-12-13T01:26:14.838Z,-11.50
2022-12-13T01:28:41.709Z,-11.40
2022-12-13T01:31:11.300Z,-11.40
2022-12-13T01:33:38.588Z,-11.30
2022-12-13T01:36:09.133Z,-11.30
2022-12-13T01:38:37.803Z,-11.30
2022-12-13T01:41:16.758Z,-11.30
2022-12-13T01:43:44.755Z,-11.40
2022-12-13T01:46:12.754Z,-11.50
2022-12-13T01:48:49.629Z,-11.50
2022-12-13T01:51:19.188Z,-11.40
2022-12-13T01:53:49.762Z,-11.50
2022-12-13T01:56:23.738Z,-11.60
2022-12-13T01:58:52.073Z,-11.60
2022-12-13T02:01:19.050Z,-11.60
2022-12-13T02:03:46.152Z,-11.70
2022-12-13T02:06:44.107Z,-11.60
2022-12-13T02:09:11.237Z,-11.70
2022-12-13T02:11:41.416Z,-11.60
2022-12-13T02:14:09.868Z,-11.50
2022-12-13T02:16:52.952Z,-11.40
2022-12-13T02:19:48.595Z,-11.40
2022-12-13T02:22:46.330Z,-11.30
2022-12-13T02:25:47.834Z,-11.10
2022-12-13T02:29:04.957Z,-11.00
2022-12-13T02:31:50.998Z,-10.90
2022-12-13T02:34:38.612Z,-10.80
2022-12-13T02:37:17.806Z,-10.80
2022-12-13T02:40:01.856Z,-10.70
2022-12-13T02:42:41.650Z,-10.70
2022-12-13T02:45:20.261Z,-10.70
2022-12-13T02:47:49.185Z,-10.70
2022-12-13T02:50:16.270Z,-10.60
2022-12-13T02:52:46.400Z,-10.80
2022-12-13T02:55:16.235Z,-10.80
2022-12-13T02:57:45.825Z,-10.90
2022-12-13T03:00:27.042Z,-11.00
2022-12-13T03:03:18.685Z,-11.00
2022-12-13T03:06:19.213Z,-10.90
2022-12-13T03:08:58.114Z,-10.80
2022-12-13T03:11:51.918Z,-10.80
2022-12-13T03:14:22.019Z,-10.70
2022-12-13T03:16:52.598Z,-10.70
2022-12-13T03:19:19.613Z,-10.60
2022-12-13T03:21:49.167Z,-10.50
2022-12-13T03:24:21.259Z,-10.40
2022-12-13T03:26:50.208Z,-10.40
2022-12-13T03:29:24.287Z,-10.50
2022-12-13T03:31:52.751Z,-10.40
2022-12-13T03:34:22.564Z,-10.50
2022-12-13T03:36:50.236Z,-10.50
2022-12-13T03:39:17.152Z,-10.50
2022-12-13T03:41:44.142Z,-10.60
2022-12-13T03:44:10.997Z,-10.80
2022-12-13T03:46:37.904Z,-10.90
2022-12-13T03:49:04.725Z,-10.90
2022-12-13T03:51:31.517Z,-10.90
2022-12-13T03:53:58.219Z,-10.80
2022-12-13T03:56:26.251Z,-11.00
2022-12-13T03:58:53.025Z,-11.00
2022-12-13T04:01:19.828Z,-11.00
2022-12-13T04:03:47.589Z,-10.90
2022-12-13T04:06:22.116Z,-10.90
2022-12-13T04:08:51.008Z,-10.90
2022-12-13T04:11:42.766Z,-10.90
2022-12-13T04:14:10.838Z,-11.00
2022-12-13T04:16:37.749Z,-11.00
2022-12-13T04:19:04.582Z,-11.30
2022-12-13T04:21:31.304Z,-11.40
2022-12-13T04:24:01.043Z,-11.30
2022-12-13T04:26:28.809Z,-11.40
2022-12-13T04:28:55.796Z,-11.40
2022-12-13T04:31:23.238Z,-11.40
2022-12-13T04:33:50.177Z,-11.50
2022-12-13T04:36:32.246Z,-11.60
2022-12-13T04:39:03.624Z,-11.60
2022-12-13T04:41:51.646Z,-11.70
2022-12-13T04:44:28.937Z,-11.70
2022-12-13T04:47:01.355Z,-11.50
2022-12-13T04:49:29.310Z,-11.40
2022-12-13T04:52:00.840Z,-11.40
2022-12-13T04:54:36.079Z,-11.30
2022-12-13T04:57:05.565Z,-11.40
2022-12-13T04:59:32.268Z,-11.40
2022-12-13T05:01:59.032Z,-11.50
2022-12-13T05:04:32.136Z,-11.40
2022-12-13T05:06:59.721Z,-11.40
2022-12-13T05:09:26.594Z,-11.60
2022-12-13T05:11:53.384Z,-11.60
2022-12-13T05:14:30.025Z,-11.60
2022-12-13T05:16:57.008Z,-11.80
2022-12-13T05:19:30.030Z,-11.90
2022-12-13T05:21:58.476Z,-12.00
2022-12-13T05:24:29.454Z,-12.00
2022-12-13T05:26:56.134Z,-12.10
2022-12-13T05:29:23.038Z,-12.10
2022-12-13T05:31:49.790Z,-12.20
2022-12-13T05:34:16.500Z,-12.20
2022-12-13T05:36:43.213Z,-12.30
2022-12-13T05:39:29.220Z,-12.40
2022-12-13T05:42:01.675Z,-12.40
2022-12-13T05:44:29.785Z,-12.20
2022-12-13T05:46:56.452Z,-12.10
2022-12-13T05:49:23.099Z,-12.10
2022-12-13T05:51:49.806Z,-12.20
2022-12-13T05:54:16.588Z,-12.10
2022-12-13T05:56:46.378Z,-12.10
2022-12-13T05:59:13.087Z,-12.20
2022-12-13T06:01:43.811Z,-12.20
2022-12-13T06:04:11.803Z,-12.30
2022-12-13T06:06:38.534Z,-12.30
2022-12-13T06:09:05.336Z,-12.20
2022-12-13T06:11:32.663Z,-12.20
2022-12-13T06:14:01.144Z,-12.30
2022-12-13T06:16:28.429Z,-12.30
2022-12-13T06:19:03.667Z,-12.30
2022-12-13T06:21:43.743Z,-12.40
2022-12-13T06:24:14.686Z,-12.30
2022-12-13T06:26:41.415Z,-12.30
2022-12-13T06:29:08.147Z,-12.20
2022-12-13T06:31:34.823Z,-12.30
2022-12-13T06:34:14.541Z,-12.30
2022-12-13T06:36:42.223Z,-12.30
2022-12-13T06:39:09.120Z,-12.20
2022-12-13T06:41:36.844Z,-12.20
2022-12-13T06:44:03.732Z,-12.20
2022-12-13T06:46:34.503Z,-12.20
2022-12-13T06:49:01.593Z,-12.30
2022-12-13T06:51:33.147Z,-12.30
2022-12-13T06:54:04.366Z,-12.40
2022-12-13T06:56:32.791Z,-12.40
2022-12-13T06:59:01.436Z,-12.40
2022-12-13T07:01:37.043Z,-11.80
2022-12-13T07:04:05.821Z,-11.80
2022-12-13T07:06:52.728Z,-11.90
2022-12-13T07:09:19.401Z,-12.00
2022-12-13T07:11:51.650Z,-12.00
2022-12-13T07:14:19.357Z,-12.00
2022-12-13T07:16:46.059Z,-11.80
2022-12-13T07:19:22.932Z,-11.80
2022-12-13T07:21:51.054Z,-11.90
2022-12-13T07:24:18.063Z,-12.00
2022-12-13T07:26:44.783Z,-12.00
2022-12-13T07:29:11.520Z,-12.10
2022-12-13T07:31:38.287Z,-12.20
2022-12-13T07:34:05.099Z,-12.10
2022-12-13T07:36:31.884Z,-12.20
2022-12-13T07:38:58.806Z,-12.10
2022-12-13T07:41:26.580Z,-12.10
2022-12-13T07:43:55.873Z,-12.00
2022-12-13T07:46:32.825Z,-12.00
2022-12-13T07:49:07.183Z,-11.90
2022-12-13T07:51:35.219Z,-11.90
2022-12-13T07:54:06.393Z,-11.90
2022-12-13T07:56:34.752Z,-11.90
2022-12-13T07:59:01.422Z,-11.90
2022-12-13T08:01:29.136Z,-11.90
2022-12-13T08:03:56.318Z,-11.70
2022-12-13T08:06:23.103Z,-11.50
2022-12-13T08:08:51.180Z,-11.30
2022-12-13T08:11:18.064Z,-11.10
2022-12-13T08:13:44.769Z,-11.00
2022-12-13T08:16:27.311Z,-10.90
2022-12-13T08:19:02.154Z,-10.80
2022-12-13T08:24:20.559Z,-10.40
2022-12-13T08:26:47.393Z,-10.30
2022-12-13T08:29:22.530Z,-10.10
2022-12-13T08:31:58.949Z,-10.00
2022-12-13T08:34:28.183Z,-9.90
2022-12-13T08:37:01.229Z,-9.80
2022-12-13T08:39:29.127Z,-9.60
2022-12-13T08:41:55.991Z,-9.50
2022-12-13T08:44:22.687Z,-9.40
2022-12-13T08:46:49.415Z,-9.30
2022-12-13T08:49:16.286Z,-9.20
2022-12-13T08:51:42.969Z,-9.20
2022-12-13T08:54:11.029Z,-9.30
2022-12-13T08:56:38.241Z,-9.40
2022-12-13T08:59:05.092Z,-9.50
2022-12-13T09:01:31.796Z,-9.50
2022-12-13T09:03:58.551Z,-9.50
2022-12-13T09:06:25.328Z,-9.40
2022-12-13T09:08:55.054Z,-9.40
2022-12-13T09:11:34.659Z,-9.30
2022-12-13T09:14:05.043Z,-9.20
2022-12-13T09:16:35.817Z,-9.10
2022-12-13T09:19:24.595Z,-9.00
2022-12-13T09:21:51.554Z,-9.00
2022-12-13T09:24:24.257Z,-8.80
2022-12-13T09:26:57.055Z,-8.60
2022-12-13T09:29:24.323Z,-8.40
2022-12-13T09:31:53.193Z,-8.30
2022-12-13T09:34:20.522Z,-8.00
2022-12-13T09:36:47.290Z,-7.80
2022-12-13T09:39:14.009Z,-7.80
2022-12-13T09:41:51.962Z,-7.80
2022-12-13T09:44:51.604Z,-7.70
2022-12-13T09:47:46.850Z,-7.60
2022-12-13T09:50:27.861Z,-7.60
2022-12-13T09:52:59.800Z,-7.60
2022-12-13T09:55:32.548Z,-7.60
2022-12-13T09:58:14.561Z,-7.50
2022-12-13T10:00:42.095Z,-7.30
2022-12-13T10:03:14.638Z,-7.40
2022-12-13T10:05:45.622Z,-7.30
2022-12-13T10:08:19.589Z,-7.20
2022-12-13T10:10:46.879Z,-7.10
2022-12-13T10:13:25.971Z,-7.00
2022-12-13T10:16:02.812Z,-7.10
2022-12-13T10:18:41.452Z,-6.90
2022-12-13T10:21:30.164Z,-6.60
2022-12-13T10:24:27.407Z,-6.50
2022-12-13T10:27:08.295Z,-6.60
2022-12-13T10:29:37.576Z,-6.70
2022-12-13T10:32:13.568Z,-6.90
2022-12-13T10:34:48.446Z,-6.70
2022-12-13T10:37:24.737Z,-6.60
2022-12-13T10:40:01.173Z,-6.60
2022-12-13T10:45:34.922Z,-6.40
2022-12-13T10:51:16.281Z,-6.40
2022-12-13T10:54:06.565Z,-6.30
2022-12-13T10:57:19.521Z,-6.30
2022-12-13T10:59:51.865Z,-6.30
2022-12-13T11:02:39.938Z,-6.40
2022-12-13T11:05:46.641Z,-6.50
2022-12-13T11:08:38.805Z,-6.60
2022-12-13T11:11:12.128Z,-6.40
2022-12-13T11:14:31.700Z,-6.40
2022-12-13T11:17:14.137Z,-6.40
2022-12-13T11:20:01.016Z,-6.30
2022-12-13T11:22:37.819Z,-6.30
2022-12-13T11:25:33.492Z,-6.20
2022-12-13T11:28:52.188Z,-6.00
2022-12-13T11:32:09.520Z,-5.90
2022-12-13T11:39:27.265Z,-5.80
2022-12-13T11:42:47.405Z,-5.80
2022-12-13T11:46:00.190Z,-5.90
2022-12-13T11:52:41.477Z,-5.70
2022-12-13T11:55:52.813Z,-5.60
2022-12-13T12:05:33.738Z,-5.50
2022-12-13T12:08:45.000Z,-5.40
2022-12-13T12:18:19.571Z,-5.30
2022-12-13T12:22:13.285Z,-5.20
2022-12-13T12:37:09.795Z,-5.00
2022-12-13T12:41:14.659Z,-4.70
2022-12-13T14:14:24.681Z,-5.30
2022-12-13T14:17:37.132Z,-5.10
2022-12-13T14:20:16.386Z,-4.90
2022-12-13T14:27:24.382Z,-4.50
2022-12-13T14:29:57.818Z,-4.30
2022-12-13T14:32:37.216Z,-4.20
2022-12-13T14:39:03.996Z,-4.50
2022-12-13T14:42:00.420Z,-4.90
2022-12-13T14:44:35.172Z,-4.80
2022-12-13T14:47:03.363Z,-4.50
2022-12-13T14:53:32.444Z,-4.30
2022-12-13T14:59:16.177Z,-5.00
2022-12-13T15:02:07.717Z,-5.80
2022-12-13T15:04:39.740Z,-5.90
2022-12-13T15:11:05.272Z,-5.60
2022-12-13T15:13:41.235Z,-5.50
2022-12-13T15:19:49.003Z,-5.00
2022-12-13T15:22:19.222Z,-4.80
2022-12-13T15:24:49.368Z,-4.90
2022-12-13T15:27:19.875Z,-5.10
2022-12-13T15:29:47.850Z,-5.10
2022-12-13T15:35:55.035Z,-4.90
2022-12-13T15:39:34.501Z,-4.80
2022-12-13T15:42:19.791Z,-5.10
2022-12-13T15:48:48.590Z,-5.40
2022-12-13T15:52:00.439Z,-5.30
2022-12-13T16:00:30.634Z,-5.30
2022-12-13T16:10:08.741Z,-5.20
2022-12-13T16:13:25.626Z,-5.20
2022-12-13T16:21:57.468Z,-5.40
2022-12-13T16:24:33.168Z,-5.40
2022-12-13T16:27:15.268Z,-5.40
2022-12-13T16:29:59.171Z,-5.40
2022-12-13T16:33:29.600Z,-5.40
2022-12-13T16:35:59.977Z,-5.50
2022-12-13T16:38:28.545Z,-5.50
2022-12-13T16:41:00.814Z,-5.40
2022-12-13T16:44:06.629Z,-5.50
2022-12-13T16:50:21.205Z,-5.70
2022-12-13T16:52:49.080Z,-5.90
2022-12-13T16:55:16.917Z,-6.00
2022-12-13T17:01:18.414Z,-6.20
2022-12-13T17:03:55.441Z,-6.20
2022-12-13T17:06:44.552Z,-6.20
2022-12-13T17:09:34.470Z,-6.10
2022-12-13T17:17:51.092Z,-5.90
2022-12-13T17:20:21.852Z,-5.90
2022-12-13T17:28:49.270Z,-5.80
2022-12-13T17:31:16.732Z,-5.80
2022-12-13T17:33:44.686Z,-5.80
2022-12-13T17:39:32.904Z,-6.10
2022-12-13T17:45:10.987Z,-6.60
2022-12-13T17:47:44.410Z,-6.60
2022-12-13T17:50:50.200Z,-6.70
2022-12-13T17:56:50.259Z,-6.60
2022-12-13T17:59:23.844Z,-6.70
2022-12-13T18:01:51.675Z,-6.60
2022-12-13T18:04:27.905Z,-6.60
2022-12-13T18:13:28.508Z,-6.50
2022-12-13T18:16:06.687Z,-6.50
2022-12-13T18:23:30.987Z,-6.50
2022-12-13T18:26:04.970Z,-6.50
2022-12-13T18:28:31.839Z,-6.40
2022-12-13T18:31:02.425Z,-6.40
2022-12-13T18:37:11.474Z,-6.50
2022-12-13T18:39:43.925Z,-6.50
2022-12-13T18:42:35.389Z,-6.40
2022-12-13T18:45:07.220Z,-6.40
2022-12-13T18:51:11.991Z,-6.30
2022-12-13T18:53:40.375Z,-6.40
2022-12-13T18:56:19.512Z,-6.40
2022-12-13T18:58:53.022Z,-6.40
2022-12-13T19:04:55.312Z,-6.30
2022-12-13T19:07:22.697Z,-6.40
2022-12-13T19:09:54.965Z,-6.40
2022-12-13T19:12:23.027Z,-6.40
2022-12-13T19:14:59.182Z,-6.40
2022-12-13T19:18:17.546Z,-6.40
2022-12-13T19:20:52.275Z,-6.40
2022-12-13T19:23:20.773Z,-6.20
2022-12-13T19:32:31.451Z,-5.90
2022-12-13T19:35:00.706Z,-5.90
2022-12-13T19:37:48.430Z,-5.90
2022-12-13T19:40:15.699Z,-5.80
2022-12-13T19:42:46.026Z,-5.90
2022-12-13T19:45:12.919Z,-6.00
2022-12-13T19:47:41.131Z,-6.00
2022-12-13T19:50:27.673Z,-6.00
2022-12-13T19:53:17.087Z,-6.00
2022-12-13T19:55:48.177Z,-5.90
2022-12-13T19:58:17.765Z,-5.70
2022-12-13T20:00:47.708Z,-5.70
2022-12-13T20:03:14.964Z,-5.60
2022-12-13T20:05:45.597Z,-5.60
2022-12-13T20:08:13.751Z,-5.70
2022-12-13T20:10:41.101Z,-5.60
2022-12-13T20:13:08.229Z,-5.50
2022-12-13T20:15:45.929Z,-5.30
2022-12-13T20:18:13.927Z,-5.60
2022-12-13T20:28:59.232Z,-5.90
2022-12-13T20:31:32.942Z,-6.00
2022-12-13T20:34:02.725Z,-6.00
2022-12-13T20:36:31.451Z,-6.00
2022-12-13T20:39:07.351Z,-6.00
2022-12-13T20:41:43.728Z,-6.10
2022-12-13T20:44:12.727Z,-6.10
2022-12-13T20:46:40.105Z,-6.10
2022-12-13T20:49:09.880Z,-6.10
2022-12-13T20:51:38.967Z,-6.10
2022-12-13T20:54:09.788Z,-6.00
2022-12-13T20:56:38.217Z,-6.00
2022-12-13T20:59:09.699Z,-5.90
2022-12-13T21:01:38.756Z,-5.90
2022-12-13T21:04:11.256Z,-5.80
2022-12-13T21:06:40.882Z,-5.80
2022-12-13T21:09:09.293Z,-5.80
2022-12-13T21:14:39.873Z,-5.90
2022-12-13T21:17:09.718Z,-5.90
2022-12-13T21:19:40.163Z,-5.80
2022-12-13T21:22:07.811Z,-5.80
2022-12-13T21:24:39.275Z,-5.60
2022-12-13T21:27:06.254Z,-5.40
2022-12-13T21:29:33.352Z,-5.40
2022-12-13T21:32:03.477Z,-5.40
2022-12-13T21:34:30.600Z,-5.30
2022-12-13T21:37:21.311Z,-5.20
2022-12-13T21:42:40.072Z,-5.60
2022-12-13T21:45:07.199Z,-5.60
2022-12-13T21:47:33.875Z,-5.60
2022-12-13T21:50:00.537Z,-5.50
2022-12-13T21:52:27.245Z,-5.40
2022-12-13T21:55:15.180Z,-5.30
2022-12-13T21:58:04.444Z,-5.30
2022-12-13T22:00:35.330Z,-5.40
2022-12-13T22:03:02.118Z,-5.30
2022-12-13T22:05:28.830Z,-5.20
2022-12-13T22:07:55.554Z,-5.20
2022-12-13T22:10:22.262Z,-5.10
2022-12-13T22:12:48.930Z,-5.10
2022-12-13T22:15:16.035Z,-5.20
2022-12-13T22:17:43.316Z,-5.10
2022-12-13T22:20:13.621Z,-5.10
2022-12-13T22:22:42.155Z,-5.10
2022-12-13T22:25:10.046Z,-5.00
2022-12-13T22:27:36.847Z,-5.20
2022-12-13T22:30:04.467Z,-5.30
2022-12-13T22:32:32.303Z,-5.30
2022-12-13T22:34:59.312Z,-5.10
2022-12-13T22:37:26.400Z,-5.10
2022-12-13T22:39:53.268Z,-5.20
2022-12-13T22:42:20.445Z,-5.20
2022-12-13T22:44:47.629Z,-5.20
2022-12-13T22:47:14.374Z,-5.20
2022-12-13T22:49:41.144Z,-5.20
2022-12-13T22:52:07.982Z,-5.30
2022-12-13T22:54:34.686Z,-5.40
2022-12-13T22:57:01.394Z,-5.30
2022-12-13T22:59:28.141Z,-5.30
2022-12-13T23:02:02.130Z,-5.30
2022-12-13T23:04:30.638Z,-5.30
2022-12-13T23:06:57.469Z,-5.30
2022-12-13T23:09:24.130Z,-5.30
2022-12-13T23:12:09.312Z,-5.40
2022-12-13T23:14:36.081Z,-5.50
2022-12-13T23:17:03.561Z,-5.60
2022-12-13T23:19:50.234Z,-5.60
2022-12-13T23:22:17.726Z,-5.50
2022-12-13T23:24:44.407Z,-5.20
2022-12-13T23:27:11.099Z,-5.00
2022-12-13T23:29:37.965Z,-5.10
2022-12-13T23:32:04.797Z,-5.10
2022-12-13T23:34:31.582Z,-5.00
2022-12-13T23:36:58.396Z,-4.90
2022-12-13T23:39:25.207Z,-4.90
2022-12-13T23:41:51.995Z,-4.80
2022-12-13T23:44:18.736Z,-4.90
2022-12-13T23:46:48.443Z,-4.90
2022-12-13T23:49:15.702Z,-4.90
2022-12-13T23:51:42.511Z,-4.80
2022-12-13T23:54:11.740Z,-4.80
2022-12-13T23:56:38.437Z,-4.90
2022-12-13T23:59:05.149Z,-4.90
